Time;durP1;ratioP1;P1;durP2;ratioP2;P2;SDS_P1;SDS_P2;PMS_P1;PMS_P2;Temp;Humidity;BMP_temperature;BMP_pressure;BME280_temperature;BME280_humidity;BME280_pressure;Samples;Min_cycle;Max_cycle;Signal;HPM_P1;HPM_P2
2021/10/06 00:01:31;;;;;;;7.30;1.90;;;11.10;99.90;;;11.73;100.00;97797.25;5013745;28;20479;-80
2021/10/06 00:04:01;;;;;;;2.37;1.30;;;10.90;99.90;;;11.73;100.00;97803.25;5012349;28;20501;-80
2021/10/06 00:06:30;;;;;;;4.70;1.40;;;10.90;99.90;;;11.74;100.00;97809.31;5012747;28;20450;-79
2021/10/06 00:08:58;;;;;;;4.60;1.30;;;10.90;99.90;;;11.68;100.00;97805.66;5005972;28;20874;-80
2021/10/06 00:11:27;;;;;;;7.10;1.70;;;11.00;99.90;;;11.68;100.00;97824.00;5005356;28;20510;-79
2021/10/06 00:13:57;;;;;;;1.53;1.37;;;11.00;99.90;;;11.71;100.00;97814.97;5007140;28;21063;-80
2021/10/06 00:16:26;;;;;;;7.50;1.70;;;10.90;99.90;;;11.70;100.00;97819.34;5004452;28;20494;-79
2021/10/06 00:18:54;;;;;;;1.87;1.07;;;11.00;99.90;;;11.69;100.00;97812.53;5007526;28;20465;-79
2021/10/06 00:21:23;;;;;;;6.70;1.40;;;11.00;99.90;;;11.63;100.00;97823.78;5011404;28;20581;-79
2021/10/06 00:23:51;;;;;;;4.43;1.40;;;10.90;99.90;;;11.63;100.00;97829.81;5003162;28;20520;-79
2021/10/06 00:26:20;;;;;;;4.60;1.53;;;10.90;99.90;;;11.67;100.00;97834.66;5007330;28;20813;-79
2021/10/06 00:28:48;;;;;;;2.00;1.30;;;10.90;99.90;;;11.65;100.00;97832.25;5015030;28;20489;-80
2021/10/06 00:31:18;;;;;;;2.90;1.20;;;10.90;99.90;;;11.66;100.00;97838.31;5008305;28;20502;-80
2021/10/06 00:33:47;;;;;;;4.47;1.43;;;10.80;99.90;;;11.66;100.00;97844.34;5006116;28;20963;-79
2021/10/06 00:36:15;;;;;;;3.30;1.63;;;10.90;99.90;;;11.65;100.00;97842.72;5010707;28;20883;-79
2021/10/06 00:38:44;;;;;;;1.67;1.30;;;10.90;99.90;;;11.64;100.00;97841.09;5008234;28;21205;-79
2021/10/06 00:41:13;;;;;;;3.33;1.40;;;10.90;99.90;;;11.65;100.00;97839.31;5004473;28;20459;-79
2021/10/06 00:43:41;;;;;;;3.73;1.47;;;10.90;99.90;;;11.66;100.00;97843.53;5015284;28;20455;-79
2021/10/06 00:46:10;;;;;;;9.70;1.57;;;10.90;99.90;;;11.65;100.00;97852.41;5010848;28;20444;-80
2021/10/06 00:48:39;;;;;;;2.30;1.17;;;10.90;99.90;;;11.65;100.00;97857.63;5010671;28;20569;-79
2021/10/06 00:51:08;;;;;;;2.77;1.30;;;10.90;99.90;;;11.63;100.00;97861.25;5007981;28;20514;-80
2021/10/06 00:53:36;;;;;;;2.60;1.50;;;10.90;99.90;;;11.65;100.00;97862.88;5002427;28;20959;-79
2021/10/06 00:56:05;;;;;;;8.53;1.53;;;10.90;99.90;;;11.66;100.00;97862.69;5010235;28;20812;-79
2021/10/06 00:58:34;;;;;;;5.93;1.70;;;11.00;99.90;;;11.68;100.00;97867.72;5008717;28;20491;-79
2021/10/06 01:01:02;;;;;;;10.63;1.70;;;10.90;99.90;;;11.65;100.00;97874.16;5002633;28;20502;-79
2021/10/06 01:03:31;;;;;;;4.53;1.30;;;10.90;99.90;;;11.66;100.00;97867.13;5007299;28;20465;-79
2021/10/06 01:06:01;;;;;;;2.93;1.50;;;10.90;99.90;;;11.67;100.00;97877.38;5011092;28;20524;-79
2021/10/06 01:08:29;;;;;;;4.07;1.40;;;10.90;99.90;;;11.70;100.00;97865.72;5010511;28;20523;-80
2021/10/06 01:10:58;;;;;;;2.73;1.20;;;10.90;99.90;;;11.67;100.00;97873.94;5013406;28;20542;-79
2021/10/06 01:13:27;;;;;;;2.43;1.37;;;10.90;99.90;;;11.70;100.00;97870.97;5004436;28;20487;-79
2021/10/06 01:15:57;;;;;;;7.90;1.80;;;10.90;99.90;;;11.73;100.00;97870.59;5006408;28;21017;-79
2021/10/06 01:18:26;;;;;;;7.37;1.60;;;10.90;99.90;;;11.69;100.00;97875.38;5006212;28;20462;-80
2021/10/06 01:20:55;;;;;;;9.37;1.70;;;10.90;99.90;;;11.67;100.00;97876.56;5003955;28;20859;-80
2021/10/06 01:23:25;;;;;;;2.13;1.53;;;10.90;99.90;;;11.67;100.00;97877.38;5004829;28;20885;-79
2021/10/06 01:25:53;;;;;;;3.47;1.60;;;10.80;99.90;;;11.69;100.00;97883.25;5009270;28;20466;-80
2021/10/06 01:28:21;;;;;;;3.93;1.30;;;11.00;99.90;;;11.70;100.00;97882.22;5004976;28;20521;-79
2021/10/06 01:30:50;;;;;;;6.20;1.80;;;11.00;99.90;;;11.74;100.00;97887.91;5005228;28;20524;-79
2021/10/06 01:33:18;;;;;;;1.50;1.40;;;11.00;99.90;;;11.75;100.00;97895.56;5007534;28;20494;-79
2021/10/06 01:35:47;;;;;;;11.23;1.73;;;11.10;99.90;;;11.76;100.00;97897.19;5008124;28;20602;-79
2021/10/06 01:38:17;;;;;;;7.77;1.87;;;11.10;99.90;;;11.76;100.00;97901.63;5008850;28;20953;-79
2021/10/06 01:40:47;;;;;;;2.67;1.47;;;11.00;99.90;;;11.74;100.00;97895.75;5008724;28;21025;-79
2021/10/06 01:43:15;;;;;;;5.20;1.50;;;11.00;99.90;;;11.77;100.00;97897.97;5015425;28;20849;-79
2021/10/06 01:45:44;;;;;;;8.57;2.00;;;11.00;99.90;;;11.75;100.00;97900.00;5009562;28;20444;-79
2021/10/06 01:48:14;;;;;;;7.20;1.70;;;11.00;99.90;;;11.73;100.00;97899.41;5011392;28;20455;-80
2021/10/06 01:50:44;;;;;;;4.93;1.50;;;11.00;99.90;;;11.75;100.00;97906.06;5010313;28;20560;-79
2021/10/06 01:53:15;;;;;;;4.40;1.57;;;11.00;99.90;;;11.77;100.00;97906.66;5008940;28;20466;-79
2021/10/06 01:55:46;;;;;;;9.43;1.80;;;11.10;99.90;;;11.69;100.00;97906.00;5008101;28;20856;-79
2021/10/06 01:58:18;;;;;;;6.03;1.70;;;11.00;99.90;;;11.70;100.00;97907.63;5009911;28;20833;-80
2021/10/06 02:00:50;;;;;;;3.70;1.50;;;11.10;99.90;;;11.71;100.00;97909.25;5011130;28;20497;-80
2021/10/06 02:03:19;;;;;;;6.20;1.63;;;11.00;99.90;;;11.75;100.00;97911.28;5011388;28;20519;-79
2021/10/06 02:05:47;;;;;;;6.30;1.83;;;11.00;99.90;;;11.72;100.00;97906.44;5007474;28;20466;-79
2021/10/06 02:08:17;;;;;;;5.63;1.73;;;11.00;99.90;;;11.74;100.00;97912.28;5009993;28;20470;-80
2021/10/06 02:10:47;;;;;;;4.10;1.37;;;11.00;99.90;;;11.75;100.00;97905.25;5009103;28;20502;-79
2021/10/06 02:13:16;;;;;;;7.17;2.23;;;11.10;99.90;;;11.75;100.00;97910.47;5009526;28;20503;-80
2021/10/06 02:15:47;;;;;;;4.57;1.90;;;11.10;99.90;;;11.75;100.00;97913.09;5010174;28;20519;-80
2021/10/06 02:18:15;;;;;;;7.00;1.57;;;11.10;99.90;;;11.71;100.00;97910.06;5010797;28;20459;-80
2021/10/06 02:20:44;;;;;;;10.50;1.80;;;11.00;99.90;;;11.75;100.00;97910.47;5011754;28;20537;-79
2021/10/06 02:23:13;;;;;;;5.30;1.60;;;11.00;99.90;;;11.77;100.00;97908.47;5009550;28;20873;-79
2021/10/06 02:25:42;;;;;;;6.93;1.53;;;11.10;99.90;;;11.77;100.00;97908.47;5011821;28;20548;-80
2021/10/06 02:28:12;;;;;;;2.27;1.60;;;11.00;99.90;;;11.78;100.00;97913.50;5007440;28;20466;-79
2021/10/06 02:30:41;;;;;;;8.83;2.03;;;11.00;99.90;;;11.79;100.00;97912.50;5007150;28;20545;-79
2021/10/06 02:33:09;;;;;;;7.00;1.70;;;11.10;99.90;;;11.76;100.00;97906.88;5014674;28;20502;-79
2021/10/06 02:35:38;;;;;;;9.33;2.00;;;11.20;99.90;;;11.72;100.00;97905.63;5010776;28;20509;-79
2021/10/06 02:38:06;;;;;;;6.27;1.70;;;11.20;99.90;;;11.66;100.00;97907.22;5011478;28;20458;-79
2021/10/06 02:40:35;;;;;;;9.97;1.90;;;11.10;99.90;;;11.65;100.00;97896.91;5014109;28;20588;-79
2021/10/06 02:43:04;;;;;;;5.27;1.70;;;11.10;99.90;;;11.67;100.00;97903.56;5014066;28;20938;-79
2021/10/06 02:45:33;;;;;;;6.33;1.70;;;11.10;99.90;;;11.71;100.00;97901.41;5015281;28;20496;-79
2021/10/06 02:48:02;;;;;;;5.53;1.73;;;11.10;99.90;;;11.60;100.00;97898.31;5009857;28;20506;-79
2021/10/06 02:50:30;;;;;;;7.23;1.97;;;11.10;99.90;;;11.59;100.00;97896.69;5009943;28;20537;-80
2021/10/06 02:52:59;;;;;;;9.30;2.23;;;11.00;99.90;;;11.60;100.00;97895.69;5008283;28;20463;-80
2021/10/06 02:55:28;;;;;;;8.10;1.90;;;11.00;99.90;;;11.59;100.00;97901.16;5009169;28;20482;-80
2021/10/06 02:57:57;;;;;;;4.53;1.30;;;11.00;99.90;;;11.59;100.00;97901.94;5010218;28;20459;-80
2021/10/06 03:00:26;;;;;;;4.57;2.00;;;11.00;99.90;;;11.56;100.00;97907.56;5008488;28;21050;-80
2021/10/06 03:02:55;;;;;;;15.60;2.40;;;11.00;99.90;;;11.57;100.00;97909.19;5008058;28;20517;-80
2021/10/06 03:05:25;;;;;;;6.90;2.47;;;11.00;99.90;;;11.57;100.00;97913.63;5009438;28;20529;-80
2021/10/06 03:07:53;;;;;;;10.27;2.07;;;11.00;99.90;;;11.57;100.00;97911.81;5011186;28;20495;-81
2021/10/06 03:10:22;;;;;;;5.03;1.70;;;10.90;99.90;;;11.61;100.00;97913.03;5006196;28;20549;-80
2021/10/06 03:12:50;;;;;;;9.33;2.27;;;10.90;99.90;;;11.61;100.00;97913.03;5007601;28;20522;-80
2021/10/06 03:15:19;;;;;;;5.37;2.23;;;10.90;99.90;;;11.61;100.00;97918.28;5011620;28;20490;-80
2021/10/06 03:17:47;;;;;;;6.50;1.80;;;10.90;99.90;;;11.57;100.00;97919.66;5004727;28;20580;-81
2021/10/06 03:20:17;;;;;;;9.27;1.93;;;10.90;99.90;;;11.56;100.00;97922.47;5006175;28;20451;-80
2021/10/06 03:22:46;;;;;;;5.47;1.90;;;11.00;99.90;;;11.55;100.00;97936.59;5009508;28;20517;-80
2021/10/06 03:25:14;;;;;;;6.50;2.00;;;10.90;99.90;;;11.54;100.00;97940.19;5010849;28;20503;-80
2021/10/06 03:27:43;;;;;;;6.83;1.87;;;10.80;99.90;;;11.52;100.00;97932.53;5009932;28;21045;-80
2021/10/06 03:30:12;;;;;;;6.10;1.43;;;10.90;99.90;;;11.53;100.00;97944.63;5007687;28;20534;-80
2021/10/06 03:32:41;;;;;;;7.30;2.03;;;10.90;99.90;;;11.52;100.00;97945.63;5003087;28;20462;-80
2021/10/06 03:35:09;;;;;;;5.70;1.80;;;10.90;99.90;;;11.49;100.00;97946.00;5007584;28;20451;-80
2021/10/06 03:37:39;;;;;;;44.20;26.33;;;10.80;99.90;;;11.51;100.00;97948.44;5008552;28;20486;-80
2021/10/06 03:40:10;;;;;;;5.43;2.13;;;10.80;99.90;;;11.52;100.00;97948.25;5002612;28;20495;-80
2021/10/06 03:42:39;;;;;;;4.00;2.00;;;10.90;99.90;;;11.46;100.00;97951.66;5002040;28;20964;-80
2021/10/06 03:45:11;;;;;;;5.33;1.83;;;10.90;99.90;;;11.51;100.00;97956.31;5008578;28;20517;-80
2021/10/06 03:47:40;;;;;;;12.13;1.80;;;10.80;99.90;;;11.53;100.00;97962.13;5002943;28;20501;-80
2021/10/06 03:50:11;;;;;;;8.73;2.10;;;10.90;99.90;;;11.57;100.00;97966.00;5013918;28;20536;-79
2021/10/06 03:52:42;;;;;;;6.03;2.40;;;10.90;99.90;;;11.57;100.00;97973.84;5006042;28;20466;-84
2021/10/06 03:55:11;;;;;;;9.63;3.10;;;10.90;99.90;;;11.59;100.00;97972.66;5008610;28;20456;-80
2021/10/06 03:57:39;;;;;;;8.30;2.27;;;10.90;99.90;;;11.58;100.00;97981.53;5022917;28;20453;-80
2021/10/06 04:00:11;;;;;;;8.43;2.50;;;10.90;99.90;;;11.59;100.00;97980.50;5011522;28;20469;-80
2021/10/06 04:02:40;;;;;;;5.13;1.90;;;10.90;99.90;;;11.61;100.00;97978.50;5003210;28;20494;-81
2021/10/06 04:05:10;;;;;;;4.27;2.03;;;10.90;99.90;;;11.57;100.00;97972.03;5012512;28;20816;-80
2021/10/06 04:07:40;;;;;;;7.63;1.93;;;11.00;99.90;;;11.60;100.00;97968.22;5002813;28;21021;-80
2021/10/06 04:10:09;;;;;;;17.20;7.90;;;10.90;99.90;;;11.56;100.00;97973.03;4999776;28;21622;-81
2021/10/06 04:12:39;;;;;;;10.20;2.40;;;10.90;99.90;;;11.59;100.00;97979.72;5011952;28;20947;-78
2021/10/06 04:15:08;;;;;;;10.23;1.90;;;11.00;99.90;;;11.59;100.00;97967.41;5007768;28;20494;-79
2021/10/06 04:17:37;;;;;;;6.13;2.00;;;10.90;99.90;;;11.60;100.00;97982.13;5004094;28;20463;-79
2021/10/06 04:20:07;;;;;;;5.73;2.10;;;10.90;99.90;;;11.56;100.00;97980.91;5004454;28;20939;-79
2021/10/06 04:22:35;;;;;;;7.97;2.40;;;11.00;99.90;;;11.54;100.00;97977.69;5001907;28;20489;-79
2021/10/06 04:25:07;;;;;;;10.60;1.93;;;10.90;99.90;;;11.58;100.00;97978.91;5014503;28;20466;-79
2021/10/06 04:27:36;;;;;;;4.87;1.80;;;11.00;99.90;;;11.59;100.00;97971.88;5015115;28;20458;-79
2021/10/06 04:30:07;;;;;;;6.47;2.10;;;11.00;99.90;;;11.58;100.00;97978.91;5006333;28;20498;-79
2021/10/06 04:32:36;;;;;;;19.50;3.30;;;11.00;99.90;;;11.60;100.00;97976.06;5002132;28;21466;-80
2021/10/06 04:35:05;;;;;;;6.33;2.47;;;11.00;99.90;;;11.59;100.00;97971.88;5003841;28;20494;-79
2021/10/06 04:37:34;;;;;;;5.23;1.87;;;11.00;99.90;;;11.53;100.00;97976.06;5011953;28;20482;-79
2021/10/06 04:40:05;;;;;;;8.50;2.70;;;11.00;99.90;;;11.52;100.00;97984.91;5010179;28;20981;-79
2021/10/06 04:42:35;;;;;;;9.13;2.33;;;10.90;99.90;;;11.54;100.00;97985.53;5003335;28;20471;-79
2021/10/06 04:45:06;;;;;;;3.27;2.00;;;10.90;99.90;;;11.49;100.00;97989.72;5009709;28;20454;-78
2021/10/06 04:47:39;;;;;;;5.33;1.87;;;10.90;99.90;;;11.51;100.00;97982.50;5006317;28;20548;-78
2021/10/06 04:50:09;;;;;;;10.90;1.90;;;10.90;99.90;;;11.50;100.00;97975.63;5009824;28;20443;-78
2021/10/06 04:52:38;;;;;;;10.67;2.30;;;10.90;99.90;;;11.43;100.00;97975.59;5009775;28;20491;-78
2021/10/06 04:55:09;;;;;;;7.07;1.87;;;10.80;99.90;;;11.46;100.00;97975.22;5009718;28;20494;-78
2021/10/06 04:57:38;;;;;;;5.57;1.90;;;10.80;99.90;;;11.42;100.00;97973.97;5010776;28;20815;-78
2021/10/06 05:00:08;;;;;;;3.73;1.73;;;10.70;99.90;;;11.44;100.00;97972.00;5008837;28;20853;-79
2021/10/06 05:02:36;;;;;;;8.57;2.00;;;10.70;99.90;;;11.44;100.00;97968.56;5010062;28;20948;-78
2021/10/06 05:05:06;;;;;;;11.83;2.20;;;10.80;99.90;;;11.46;100.00;97975.22;5010552;28;20455;-78
2021/10/06 05:07:34;;;;;;;3.63;1.83;;;10.80;99.90;;;11.44;100.00;97977.22;5010188;28;20439;-78
2021/10/06 05:10:04;;;;;;;8.07;2.10;;;10.90;99.90;;;11.43;100.00;97978.22;5009028;28;20924;-78
2021/10/06 05:12:33;;;;;;;6.13;2.30;;;10.80;99.90;;;11.43;100.00;97977.41;5009210;28;21085;-78
2021/10/06 05:15:02;;;;;;;2.93;1.50;;;10.80;99.90;;;11.42;100.00;97984.44;5008684;28;20487;-78
2021/10/06 05:17:30;;;;;;;5.37;1.83;;;10.70;99.90;;;11.46;100.00;97990.09;5009103;28;20548;-78
2021/10/06 05:19:59;;;;;;;9.93;2.03;;;10.90;99.90;;;11.50;100.00;97993.97;5009089;28;20447;-78
2021/10/06 05:22:27;;;;;;;11.70;2.10;;;10.80;99.90;;;11.49;100.00;97995.75;5011136;28;21015;-78
2021/10/06 05:24:56;;;;;;;9.13;2.30;;;10.80;99.90;;;11.48;100.00;97990.75;5012458;28;20505;-79
2021/10/06 05:27:24;;;;;;;6.83;1.90;;;10.80;99.90;;;11.48;100.00;98004.66;5013092;28;20482;-78
2021/10/06 05:29:54;;;;;;;6.40;2.00;;;10.80;99.90;;;11.44;100.00;98003.41;5013026;28;20522;-79
2021/10/06 05:32:23;;;;;;;14.10;2.77;;;10.70;99.90;;;11.51;100.00;98012.09;5012749;28;21277;-78
2021/10/06 05:34:51;;;;;;;5.33;1.80;;;10.90;99.90;;;11.50;100.00;98015.72;5012810;28;20471;-78
2021/10/06 05:37:19;;;;;;;5.30;2.37;;;10.80;99.90;;;11.52;100.00;98020.78;5012857;28;20446;-78
2021/10/06 05:39:48;;;;;;;4.17;2.27;;;10.90;99.90;;;11.54;100.00;98019.56;5013043;28;20442;-78
2021/10/06 05:42:17;;;;;;;8.53;2.23;;;10.90;99.90;;;11.51;100.00;98025.19;5012409;28;20517;-79
2021/10/06 05:44:46;;;;;;;7.53;1.90;;;10.90;99.90;;;11.52;100.00;98015.53;5022330;28;21010;-78
2021/10/06 05:47:16;;;;;;;13.30;2.03;;;11.00;99.90;;;11.48;100.00;98020.34;5012440;28;20451;-78
2021/10/06 05:49:46;;;;;;;7.20;2.10;;;11.00;99.90;;;11.48;100.00;98022.97;5013052;28;20493;-78
2021/10/06 05:52:14;;;;;;;11.67;2.03;;;10.90;99.90;;;11.50;100.00;98018.34;5011249;28;20495;-78
2021/10/06 05:54:43;;;;;;;15.07;2.00;;;10.90;99.90;;;11.52;100.00;98018.94;5012524;28;20994;-78
2021/10/06 05:57:12;;;;;;;18.03;1.80;;;10.90;99.90;;;11.55;100.00;98023.00;5012396;28;20545;-78
2021/10/06 05:59:40;;;;;;;6.50;1.87;;;10.90;99.90;;;11.56;100.00;98030.66;5012340;28;20815;-79
2021/10/06 06:02:09;;;;;;;11.87;1.60;;;11.00;99.90;;;11.51;100.00;98029.63;5012138;28;20486;-79
2021/10/06 06:04:39;;;;;;;6.80;1.87;;;10.90;99.90;;;11.51;100.00;98037.47;5012137;28;21010;-78
2021/10/06 06:07:08;;;;;;;8.83;2.43;;;10.80;99.90;;;11.46;100.00;98043.28;5009042;28;20509;-79
2021/10/06 06:09:36;;;;;;;10.03;1.93;;;10.70;99.90;;;11.40;100.00;98049.31;5011820;28;20884;-79
2021/10/06 06:12:09;;;;;;;5.73;2.00;;;10.80;99.90;;;11.43;100.00;98048.09;5012030;28;20653;-79
2021/10/06 06:14:39;;;;;;;11.63;2.20;;;10.80;99.90;;;11.47;100.00;98039.69;5011807;28;20486;-79
2021/10/06 06:17:10;;;;;;;8.60;4.30;;;10.90;99.90;;;11.50;100.00;98051.56;5011389;28;20451;-80
2021/10/06 06:19:39;;;;;;;6.03;1.80;;;10.80;99.90;;;11.54;100.00;98053.63;5012039;28;20462;-80
2021/10/06 06:22:08;;;;;;;8.40;1.97;;;10.80;99.90;;;11.57;100.00;98061.09;5012195;28;20510;-79
2021/10/06 06:24:36;;;;;;;6.20;2.60;;;10.90;99.90;;;11.57;100.00;98061.09;5011580;28;20483;-80
2021/10/06 06:27:07;;;;;;;6.90;1.87;;;11.00;99.90;;;11.58;100.00;98067.94;5009208;28;20448;-80
2021/10/06 06:29:36;;;;;;;13.37;2.23;;;11.00;99.90;;;11.55;100.00;98084.06;5010485;28;20490;-80
2021/10/06 06:32:05;;;;;;;6.40;1.67;;;11.00;99.90;;;11.56;100.00;98084.84;5011328;28;20552;-80
2021/10/06 06:34:34;;;;;;;5.57;1.70;;;11.00;99.90;;;11.60;100.00;98088.69;5011195;28;20454;-80
2021/10/06 06:37:04;;;;;;;5.47;1.50;;;11.00;99.90;;;11.57;100.00;98092.50;5011973;28;20447;-80
2021/10/06 06:39:32;;;;;;;8.40;2.07;;;11.10;99.90;;;11.54;100.00;98103.38;5011465;28;20459;-80
2021/10/06 06:42:01;;;;;;;11.63;2.10;;;11.00;99.90;;;11.56;100.00;98103.16;5011726;28;20447;-79
2021/10/06 06:44:29;;;;;;;3.50;1.50;;;11.00;99.90;;;11.56;100.00;98109.22;5021448;28;20505;-79
2021/10/06 06:46:58;;;;;;;3.37;1.70;;;10.90;99.90;;;11.55;100.00;98123.34;5011323;28;20451;-80
2021/10/06 06:49:26;;;;;;;3.70;1.70;;;11.00;99.90;;;11.54;100.00;98121.72;5011852;28;20474;-80
2021/10/06 06:51:55;;;;;;;9.47;1.70;;;11.00;99.90;;;11.46;100.00;98121.84;5010729;28;20490;-80
2021/10/06 06:54:25;;;;;;;7.07;1.53;;;10.70;99.90;;;11.52;100.00;98131.56;5011403;28;20857;-80
2021/10/06 06:56:54;;;;;;;8.87;1.97;;;10.80;99.90;;;11.55;100.00;98110.25;5011239;28;21022;-79
2021/10/06 06:59:22;;;;;;;4.30;1.30;;;10.80;99.90;;;11.57;100.00;98112.66;5011623;28;20459;-79
2021/10/06 07:01:53;;;;;;;9.57;2.00;;;10.80;99.90;;;11.58;100.00;98109.03;5010953;28;20463;-80
2021/10/06 07:04:21;;;;;;;8.47;1.67;;;10.80;99.90;;;11.57;100.00;98110.84;5003218;28;20457;-80
2021/10/06 07:06:52;;;;;;;8.63;2.07;;;10.90;99.90;;;11.57;100.00;98116.09;5011222;28;20517;-79
2021/10/06 07:09:24;;;;;;;7.70;2.00;;;10.80;99.90;;;11.58;100.00;98124.75;5010839;28;21056;-80
2021/10/06 07:11:55;;;;;;;1.80;1.20;;;10.80;99.90;;;11.54;100.00;98113.03;5010849;28;21061;-79
2021/10/06 07:14:23;;;;;;;3.83;1.53;;;10.70;99.90;;;11.55;100.00;98114.66;5010826;28;20482;-79
2021/10/06 07:16:52;;;;;;;14.63;2.23;;;10.80;99.90;;;11.57;100.00;98121.31;5010441;28;20947;-80
2021/10/06 07:19:20;;;;;;;5.70;1.90;;;10.80;99.90;;;11.58;100.00;98120.34;5011035;28;20470;-80
2021/10/06 07:21:49;;;;;;;7.83;1.60;;;10.90;99.90;;;11.60;100.00;98122.75;5011084;28;20455;-80
2021/10/06 07:24:18;;;;;;;3.57;1.37;;;10.80;99.90;;;11.66;100.00;98124.63;5010839;28;20545;-79
2021/10/06 07:26:46;;;;;;;4.00;1.23;;;11.00;99.90;;;11.68;100.00;98127.03;5011218;28;20583;-79
2021/10/06 07:29:16;;;;;;;4.93;1.30;;;11.00;99.90;;;11.71;100.00;98134.53;5010409;28;20508;-80
2021/10/06 07:31:44;;;;;;;1.63;1.23;;;11.00;99.90;;;11.73;100.00;98145.66;5010834;28;20454;-80
2021/10/06 07:34:13;;;;;;;4.10;1.83;;;11.00;99.90;;;11.72;100.00;98136.97;5008920;28;20446;-79
2021/10/06 07:36:42;;;;;;;7.03;1.70;;;11.00;99.90;;;11.65;100.00;98151.00;5010672;28;20451;-80
2021/10/06 07:39:10;;;;;;;4.10;1.47;;;10.90;99.90;;;11.63;100.00;98138.88;5010487;28;20451;-80
2021/10/06 07:41:39;;;;;;;5.10;1.60;;;10.80;99.90;;;11.69;100.00;98142.56;5010624;28;20447;-80
2021/10/06 07:44:08;;;;;;;10.70;1.50;;;11.00;99.90;;;11.76;100.00;98153.13;5018963;28;20486;-80
2021/10/06 07:46:39;;;;;;;4.50;1.53;;;11.00;99.90;;;11.82;100.00;98147.09;5010060;28;20447;-80
2021/10/06 07:49:08;;;;;;;4.13;1.80;;;11.10;99.90;;;11.85;100.00;98149.34;5010306;28;20443;-80
2021/10/06 07:51:36;;;;;;;11.93;2.30;;;11.10;99.90;;;11.91;100.00;98156.41;5010590;28;20657;-80
2021/10/06 07:54:05;;;;;;;3.50;1.40;;;11.20;99.90;;;11.94;100.00;98167.31;5010085;28;20917;-79
2021/10/06 07:56:34;;;;;;;10.00;2.20;;;11.30;99.90;;;11.88;100.00;98165.47;5010748;28;20804;-80
2021/10/06 07:59:03;;;;;;;9.40;2.00;;;11.20;99.90;;;11.97;100.00;98166.16;5009930;28;20951;-80
2021/10/06 08:01:31;;;;;;;10.10;1.83;;;11.30;99.90;;;11.95;100.00;98176.00;5010174;28;20549;-79
2021/10/06 08:04:21;;;;;;;8.70;1.57;;;11.30;99.90;;;11.99;100.00;98174.63;5010048;28;20546;-80
2021/10/06 08:06:50;;;;;;;9.43;1.60;;;11.20;99.90;;;12.08;100.00;98169.03;5009839;28;20986;-80
2021/10/06 08:09:20;;;;;;;10.07;1.70;;;11.50;99.90;;;12.10;100.00;98171.47;5009978;28;20513;-79
2021/10/06 08:11:49;;;;;;;4.70;1.63;;;11.50;99.90;;;12.06;100.00;98170.22;5009862;28;20443;-80
2021/10/06 08:14:17;;;;;;;6.07;1.90;;;11.40;99.90;;;12.05;100.00;98176.47;5009329;28;20483;-80
2021/10/06 08:16:46;;;;;;;7.07;1.67;;;11.30;99.90;;;12.13;100.00;98171.06;5012823;28;20854;-80
2021/10/06 08:19:14;;;;;;;5.70;1.50;;;11.40;99.90;;;12.20;100.00;98179.78;5010122;28;20552;-80
2021/10/06 08:21:47;;;;;;;6.00;1.70;;;11.50;99.90;;;12.18;100.00;98181.00;5009897;28;20463;-80
2021/10/06 08:24:15;;;;;;;16.37;2.13;;;11.50;99.90;;;12.23;100.00;98184.63;5009668;28;20458;-80
2021/10/06 08:26:44;;;;;;;6.80;1.33;;;11.50;99.90;;;12.29;100.00;98185.66;5009797;28;21001;-80
2021/10/06 08:29:12;;;;;;;2.93;1.57;;;11.60;99.90;;;12.33;100.00;98187.72;5009802;28;20505;-80
2021/10/06 08:31:41;;;;;;;6.20;1.50;;;11.70;99.90;;;12.27;100.00;98182.44;5010605;28;20447;-80
2021/10/06 08:34:09;;;;;;;11.30;1.93;;;11.50;99.90;;;12.27;100.00;98183.25;5009217;28;20787;-80
2021/10/06 08:36:38;;;;;;;6.57;1.80;;;11.50;99.90;;;12.31;100.00;98187.09;5009559;28;20505;-80
2021/10/06 08:39:09;;;;;;;3.47;1.40;;;11.50;99.90;;;12.29;100.00;98196.97;5005410;28;20513;-79
2021/10/06 08:41:38;;;;;;;13.47;1.77;;;11.50;99.90;;;12.33;100.00;98190.34;5009934;28;20838;-80
2021/10/06 08:44:07;;;;;;;5.50;1.70;;;11.70;99.90;;;12.36;100.00;98200.44;5018554;28;20478;-80
2021/10/06 08:46:39;;;;;;;9.60;2.07;;;11.70;99.90;;;12.34;100.00;98199.00;5011065;28;20466;-80
2021/10/06 08:49:07;;;;;;;6.10;2.03;;;11.70;99.90;;;12.39;100.00;98202.66;5009205;28;20439;-80
2021/10/06 08:51:36;;;;;;;3.63;1.47;;;11.80;99.90;;;12.42;100.00;98202.31;5009492;28;20458;-80
2021/10/06 08:54:06;;;;;;;9.87;2.00;;;11.90;99.90;;;12.44;100.00;98208.16;5009247;28;20494;-80
2021/10/06 08:56:36;;;;;;;6.13;1.63;;;11.90;99.90;;;12.39;100.00;98215.78;5011077;28;21008;-80
2021/10/06 08:59:05;;;;;;;4.07;1.57;;;11.80;99.90;;;12.45;100.00;98207.16;5013424;28;20534;-80
2021/10/06 09:01:33;;;;;;;10.63;1.70;;;11.80;99.90;;;12.42;100.00;98215.41;5013513;28;20479;-80
2021/10/06 09:04:05;;;;;;;7.70;2.07;;;11.80;99.90;;;12.33;100.00;98213.94;5013171;28;20453;-80
2021/10/06 09:06:37;;;;;;;5.97;1.50;;;11.60;99.90;;;12.41;100.00;98226.09;5013510;28;20663;-80
2021/10/06 09:09:17;;;;;;;7.17;1.53;;;11.80;99.90;;;12.43;100.00;98218.81;5013261;28;20450;-79
2021/10/06 09:11:49;;;;;;;3.40;1.60;;;11.80;99.90;;;12.43;100.00;98214.38;5013351;28;20458;-80
2021/10/06 09:14:20;;;;;;;7.63;1.80;;;11.80;99.90;;;12.45;100.00;98212.41;5012969;28;20507;-80
2021/10/06 09:17:04;;;;;;;13.50;1.97;;;11.80;99.90;;;12.46;100.00;98214.00;5012844;28;20478;-80
2021/10/06 09:19:39;;;;;;;8.07;1.63;;;11.80;99.90;;;12.48;100.00;98217.25;5008990;28;20451;-80
2021/10/06 09:22:16;;;;;;;7.40;1.67;;;11.80;99.90;;;12.40;100.00;98227.91;5012831;28;20461;-80
2021/10/06 09:24:58;;;;;;;7.20;1.70;;;11.70;99.90;;;12.31;100.00;98226.44;5012919;28;20489;-80
2021/10/06 09:27:30;;;;;;;5.30;1.70;;;11.60;99.90;;;12.39;100.00;98222.84;5013061;28;20943;-80
2021/10/06 09:30:02;;;;;;;8.70;1.80;;;11.70;99.90;;;12.43;100.00;98227.50;5012931;28;20458;-80
2021/10/06 09:32:35;;;;;;;9.00;1.80;;;11.80;99.90;;;12.38;100.00;98232.53;5012807;28;20442;-79
2021/10/06 09:35:12;;;;;;;5.10;1.93;;;11.70;99.90;;;12.39;100.00;98226.25;5013171;28;20443;-79
2021/10/06 09:37:44;;;;;;;6.83;2.10;;;11.70;99.90;;;12.32;100.00;98227.25;5012798;28;20497;-80
2021/10/06 09:40:16;;;;;;;11.40;1.67;;;11.70;99.90;;;12.29;100.00;98227.63;5012746;28;20844;-80
2021/10/06 09:42:49;;;;;;;10.80;2.13;;;11.70;99.90;;;12.36;100.00;98231.91;5016023;28;20523;-80
2021/10/06 09:45:28;;;;;;;6.43;1.80;;;11.70;99.90;;;12.44;100.00;98238.81;5014801;28;20447;-80
2021/10/06 09:48:08;;;;;;;6.83;2.07;;;11.80;99.90;;;12.49;100.00;98229.38;5012211;28;20450;-80
2021/10/06 09:50:42;;;;;;;2.20;1.43;;;11.90;99.90;;;12.39;100.00;98238.59;5012327;28;20536;-80
2021/10/06 09:53:13;;;;;;;12.37;2.03;;;11.70;99.90;;;12.43;100.00;98238.00;5012482;28;20489;-80
2021/10/06 09:55:44;;;;;;;2.80;1.50;;;11.80;99.90;;;12.38;100.00;98237.78;5011898;28;20456;-80
2021/10/06 09:58:16;;;;;;;7.23;2.00;;;11.70;99.90;;;12.44;100.00;98230.94;5012318;28;20487;-80
2021/10/06 10:00:47;;;;;;;6.90;1.73;;;11.70;99.90;;;12.47;100.00;98228.75;5012498;28;20478;-80
2021/10/06 10:03:16;;;;;;;7.70;2.37;;;11.80;99.90;;;12.49;100.00;98229.38;5012362;28;20744;-80
2021/10/06 10:05:45;;;;;;;8.53;1.97;;;11.80;99.90;;;12.46;100.00;98229.72;5012301;28;21013;-80
2021/10/06 10:08:14;;;;;;;4.63;1.80;;;11.80;99.90;;;12.40;100.00;98230.53;5011608;28;20467;-80
2021/10/06 10:10:43;;;;;;;4.50;2.00;;;11.70;99.90;;;12.43;100.00;98235.38;5012232;28;21015;-79
2021/10/06 10:13:11;;;;;;;10.00;1.70;;;11.90;99.90;;;12.42;100.00;98236.41;5011769;28;20474;-80
2021/10/06 10:15:41;;;;;;;5.87;2.53;;;11.90;99.90;;;12.38;100.00;98242.22;5011940;28;20495;-80
2021/10/06 10:18:11;;;;;;;3.70;1.67;;;11.70;99.90;;;12.44;100.00;98234.38;5011343;28;21002;-80
2021/10/06 10:20:44;;;;;;;4.90;2.10;;;11.80;99.90;;;12.39;100.00;98246.47;5011950;28;20997;-80